Bei Facebook empfehlenBei Twitter postenGoogle plusPinterest

Das Wetter im Erzgebirge am 09.03.2017

Wetter und Klima am 09.03.2017 Holzhau im Erzgebirge (630m ü.NN)
Letzte gemessene Temperatur und Uhrzeit der Messung23:45:00 Uhr2.20 °C
Temperatur (Maximum / Höchstwert) und Uhrzeit der Messung16:00:00 Uhr10.10 °C
Temperatur (Minimum / Tiefstwert) und Uhrzeit der Messung00:00:000.70 °C
Errechneter Absolutwert der Temperaturschwankungen zwischen Tmin und Tmax des Tages9.40 K
Errechnete Tagesmitteltemperatur4.30729 °C
Gesamt - Niederschlag des Tages (in flüssiger Form)8.81 Liter / m²
Luftdruck (Maximum / Höchstwert) und Zeitpunkt der Messung12:00:00 Uhr1014.30 hPa
Luftdruck (Minimum / Tiefstwert) und Zeitpunkt der Messung02:45:00 Uhr1010.40 hPa
Errechneter Absolutwert der Luftdruckschwankungen des Tages3.90 hPa
Höchste gemessene Windgeschwindigkeit und Uhrzeit der Messung19:00:00 Uhr17.28 km/h
Errechnete Windhäufigkeit in Relation zu den Messwerten des Tages36.45833 %
Niedrigste Windkühle (Windchill) und Zeitpunkt der Messung01:00:00 Uhr-2.20 °C
Taupunkt (Maximum / Höchstwert) und Uhrzeit der Messung16:00:00 Uhr5.70 °C
Taupunkt (Minimum / Tiefstwert) und Uhrzeit der Messung00:00:00-0.40 °C
Anzahl der automatisch eingelesenen Messwerte 96

Detaillierte Wetter- und Klima- Messwerte für den 09.03.2017 in Holzhau im Erzgebirge (630m ü.NN)
ZeitTemperaturLuftdruckRel. LuftfeuchteWindWindrichtungWindchillTaupunktNiederschlag l/m²
23:45:002.20 °C1011.20 hPa93.00 %1.20 °C8.81
23:30:002.00 °C1011.30 hPa92.00 %1.80 km/hW2.00 °C0.80 °C8.81
23:15:002.30 °C1011.30 hPa92.00 %14.76 km/hW-1.50 °C1.10 °C8.29
23:00:003.00 °C1011.40 hPa92.00 %5.04 km/hW1.80 °C1.80 °C8.29
22:45:003.90 °C1010.60 hPa94.00 %3.00 °C7.77
22:30:003.30 °C1010.60 hPa93.00 %1.08 km/hW3.30 °C2.30 °C7.77
22:15:002.20 °C1010.70 hPa92.00 %1.00 °C7.77
22:00:001.90 °C1010.90 hPa91.00 %0.60 °C7.77
21:45:001.90 °C1010.90 hPa91.00 %0.60 °C7.77
21:30:001.90 °C1011.00 hPa91.00 %0.60 °C7.77
21:15:002.10 °C1010.70 hPa91.00 %0.80 °C7.77
21:00:001.90 °C1011.10 hPa91.00 %0.60 °C7.77
20:45:001.90 °C1011.40 hPa91.00 %0.60 °C7.77
20:30:001.90 °C1011.40 hPa90.00 %1.80 km/hSO1.90 °C0.40 °C7.25
20:15:001.90 °C1011.30 hPa89.00 %0.30 °C6.22
20:00:002.00 °C1010.90 hPa88.00 %0.20 °C5.70
19:45:002.30 °C1011.40 hPa87.00 %4.68 km/hOSO2.30 °C0.40 °C5.70
19:30:002.90 °C1011.60 hPa85.00 %0.60 °C4.66
19:15:003.40 °C1011.60 hPa82.00 %0.60 °C3.63
19:00:004.40 °C1012.30 hPa79.00 %17.28 km/hWSW0.70 °C1.10 °C3.11
18:45:005.20 °C1011.60 hPa77.00 %14.76 km/hSO2.00 °C1.50 °C3.11
18:30:005.20 °C1011.70 hPa82.00 %2.40 °C3.11
18:15:005.50 °C1011.70 hPa81.00 %2.50 °C3.11
18:00:005.60 °C1011.10 hPa81.00 %2.60 °C3.11
17:45:005.90 °C1011.10 hPa81.00 %2.16 km/hSSW5.90 °C2.90 °C3.11
17:30:006.60 °C1011.20 hPa80.00 %3.40 °C3.11
17:15:007.30 °C1011.40 hPa78.00 %3.70 °C3.11
17:00:007.90 °C1011.70 hPa74.00 %3.60 °C3.11
16:45:009.20 °C1012.00 hPa73.00 %4.60 °C3.11
16:30:009.80 °C1012.20 hPa74.00 %5.40 °C3.11
16:15:009.90 °C1012.00 hPa73.00 %6.48 km/hSSO9.20 °C5.30 °C3.11
16:00:0010.10 °C1012.10 hPa74.00 %5.70 °C3.11
15:45:009.80 °C1012.40 hPa75.00 %5.60 °C3.11
15:30:009.30 °C1012.50 hPa77.00 %5.50 °C3.11
15:15:009.10 °C1012.90 hPa77.00 %5.30 °C3.11
15:00:009.20 °C1013.00 hPa77.00 %5.40 °C3.11
14:45:008.90 °C1013.10 hPa78.00 %5.30 °C3.11
14:30:008.40 °C1013.30 hPa78.00 %4.80 °C3.11
14:15:008.50 °C1013.30 hPa78.00 %4.90 °C3.11
14:00:008.20 °C1013.60 hPa79.00 %0.36 km/hNNW8.20 °C4.80 °C3.11
13:45:007.90 °C1013.60 hPa81.00 %3.24 km/hWSW7.90 °C4.80 °C3.11
13:30:007.70 °C1013.80 hPa83.00 %5.00 °C3.11
13:15:007.30 °C1013.70 hPa83.00 %5.04 km/hWNW6.70 °C4.60 °C3.11
13:00:007.10 °C1013.70 hPa84.00 %4.60 °C3.11
12:45:007.10 °C1013.90 hPa84.00 %4.32 km/hW7.10 °C4.60 °C3.11
12:30:006.80 °C1014.10 hPa84.00 %4.30 °C3.11
12:15:006.90 °C1014.20 hPa86.00 %4.70 °C3.11
12:00:006.40 °C1014.30 hPa87.00 %1.80 km/hWNW6.40 °C4.40 °C3.11
11:45:006.20 °C1014.30 hPa87.00 %5.04 km/hNNW5.40 °C4.20 °C3.11
11:30:005.60 °C1014.00 hPa89.00 %3.90 °C3.11
11:15:005.30 °C1014.10 hPa91.00 %4.00 °C3.11
11:00:004.90 °C1014.10 hPa91.00 %2.16 km/hW4.90 °C3.60 °C3.11
10:45:005.20 °C1013.80 hPa92.00 %4.00 °C3.11
10:30:004.70 °C1013.90 hPa93.00 %2.88 km/hNW4.70 °C3.70 °C3.11
10:15:004.50 °C1013.90 hPa94.00 %3.60 °C3.11
10:00:004.40 °C1013.80 hPa95.00 %3.70 °C3.11
09:45:004.40 °C1013.70 hPa95.00 %3.70 °C3.11
09:30:004.20 °C1013.70 hPa95.00 %3.50 °C3.11
09:15:004.00 °C1013.60 hPa95.00 %3.30 °C3.11
09:00:003.90 °C1013.50 hPa95.00 %5.40 km/hW2.70 °C3.20 °C3.11
08:45:003.60 °C1013.20 hPa95.00 %6.48 km/hNW1.90 °C2.90 °C3.11
08:30:003.50 °C1013.30 hPa95.00 %2.80 °C3.11
08:15:003.60 °C1013.20 hPa95.00 %3.96 km/hNNW3.60 °C2.90 °C3.11
08:00:003.50 °C1013.20 hPa95.00 %2.52 km/hNW3.50 °C2.80 °C3.11
07:45:003.60 °C1013.20 hPa95.00 %2.90 °C3.11
07:30:003.60 °C1013.00 hPa95.00 %3.24 km/hW3.60 °C2.90 °C3.11
07:15:003.40 °C1013.10 hPa95.00 %0.72 km/hNNW3.40 °C2.70 °C3.11
07:00:003.40 °C1012.90 hPa95.00 %2.70 °C2.59
06:45:003.40 °C1012.70 hPa95.00 %2.70 °C2.59
06:30:003.40 °C1012.70 hPa95.00 %6.48 km/hNW1.70 °C2.70 °C2.59
06:15:003.40 °C1012.50 hPa95.00 %2.70 °C2.59
06:00:003.30 °C1012.50 hPa95.00 %2.60 °C2.59
05:45:003.40 °C1012.20 hPa95.00 %2.70 °C2.59
05:30:003.30 °C1011.90 hPa95.00 %2.60 °C2.59
05:15:003.30 °C1011.80 hPa95.00 %6.84 km/hNNW1.50 °C2.60 °C2.07
05:00:003.30 °C1011.50 hPa95.00 %2.60 °C2.07
04:45:003.30 °C1011.60 hPa95.00 %2.60 °C2.07
04:30:003.30 °C1011.30 hPa95.00 %3.24 km/hWNW3.30 °C2.60 °C2.07
04:15:003.30 °C1011.10 hPa95.00 %2.60 °C2.07
04:00:003.20 °C1010.80 hPa95.00 %2.50 °C1.56
03:45:003.10 °C1010.60 hPa95.00 %2.40 °C1.56
03:30:002.90 °C1010.50 hPa94.00 %2.52 km/hW2.90 °C2.00 °C1.56
03:15:002.50 °C1010.60 hPa94.00 %3.24 km/hNW2.50 °C1.60 °C1.56
03:00:001.60 °C1010.50 hPa93.00 %10.44 km/hWNW-1.50 °C0.60 °C1.56
02:45:001.40 °C1010.40 hPa93.00 %0.40 °C1.56
02:30:001.30 °C1010.50 hPa93.00 %0.30 °C1.56
02:15:001.10 °C1010.50 hPa93.00 %0.10 °C1.04
02:00:001.10 °C1010.50 hPa93.00 %0.10 °C1.04
01:45:001.00 °C1010.50 hPa93.00 %0.00 °C0.52
01:30:001.00 °C1010.50 hPa93.00 %0.00 °C0.52
01:15:001.00 °C1010.50 hPa92.00 %1.80 km/hSO1.00 °C-0.10 °C0.52
01:00:000.90 °C1010.40 hPa92.00 %9.72 km/hSSW-2.20 °C-0.20 °C0.52
00:45:000.80 °C1010.40 hPa92.00 %5.04 km/hSO-0.70 °C-0.30 °C0.52
00:30:000.80 °C1010.40 hPa92.00 %7.20 km/hSSW-1.50 °C-0.30 °C0.52
00:15:000.80 °C1010.60 hPa92.00 %-0.30 °C 
00:00:000.70 °C1010.60 hPa92.00 %5.40 km/hSO-1.00 °C-0.40 °C 

Permanenter Link zu dieser Seite: Wetter im Erzgebirge am 09.03.2017
Performance-Info: Die Erstellung der Seite / Statistik(en) / Tabelle(n) erforderte 5 Datenbankserver-Abfrage(n) und dauerte 126 Millisekunden. (Dieser Messwert ist von der Gesamt-Auslastung des Servers abhängig.)
Erzgebirge - Wetter | Erzgebirge - Wetter (Mobilgeräte) | Komplette Klimadatenbank